Boca Raton, FL (33428)

2:44 AM EDT on June 03, 2015 (GMT -0400)
Boca (C6162) | | Change Station
CLOSE
Current Station
Personal Weather Station
Location: Boca Raton, FL
Elevation: 12 ft
Nearby Weather Stations

Elev 12 ft 26.34 °N, 80.21 °W | Updated 5 seconds ago

Rain
Rain
72.5 °F
Feels Like 72.5 °F
N
3.0
Wind Variable Wind from North
Gusts 3.0 mph

Today
High -- | Low -- °F
--% Chance of Precip.
Yesterday
High -- | Low -- °F
Precip. -- in
6:27 AM 8:10 PM
Full, 100% visible
Pressure 29.95 in
Visibility 10.0 miles
Clouds Few 2600 ft
Scattered Clouds 3800 ft
Mostly Cloudy 9000 ft
Dew Point 71 °F
Humidity 94%
Rainfall 0.00 in
Snow Depth Not available.
UV 0.0 out of 12
Pollen 1.50 out of 12
Air Quality Not available.
Flu Activity Sporadic
METAR KPMP 030553Z AUTO 00000KT 10SM -RA FEW026 SCT038 BKN090 23/22 A2995 RMK AO2 SLP142 P0000 60063 T02330222 10272 20217 58005

More Conditions Fewer Conditions

Pressure 29.95 in
Visibility 10.0 miles
Clouds Few 2600 ft
Scattered Clouds 3800 ft
Mostly Cloudy 9000 ft
Dew Point 71 °F
Humidity 94%
Rainfall 0.00 in
Snow Depth Not available.
UV 0.0 out of 12
Pollen 1.50 out of 12
Air Quality Not available.
Flu Activity Sporadic
METAR KPMP 030553Z AUTO 00000KT 10SM -RA FEW026 SCT038 BKN090 23/22 A2995 RMK AO2 SLP142 P0000 60063 T02330222 10272 20217 58005

More Conditions Fewer Conditions

Nowcast | as of 11:18 PM EDT on June 2, 2015

Diminishing areas of light rain are being replaced by some showers and isolated storms over portions of the East Coast and the interior. Additional scattered showers and a few thunderstorms will redevelop this morning. Brief heavy downpours and a few rumbles of thunder are possible with the strongest showers.

×

10-Day Weather Forecast

×

Almanac

Astronomy

Jun. 03, 2015 Rise Set
Actual Time
Civil Twilight
Nautical Twilight
Astronomical Twilight
Moon
Length of Visible Light
Length of Day
Tomorrow will be .
, % of the Moon is Illuminated

Today's Extremes

State Highs State Lows

Community

WunderPhotos

Upload Photos

1,826,185 photos uploaded!

WunderBlogs® & News

Nearby

Air Quality

  Air Quality AQ Index Pollutant
Not available.

Snow Depth

Station Depth Elevation

Earthquake Activity

City Distance Mag. Time & Date
Minimum magnitude displayed is 2.5.

Coastal Water Temperatures

Place Temperature

Stations

Nearby Weather Stations

Station Location Temp. Windchill Dew Point Humidity Wind Precip. Elev Updated Type